createdAt,value
2023-02-07T00:00:23.537Z,6.30
2023-02-07T00:02:51.201Z,5.53
2023-02-07T00:05:18.805Z,5.28
2023-02-07T00:07:46.394Z,4.45
2023-02-07T00:10:13.961Z,4.72
2023-02-07T00:12:42.940Z,4.70
2023-02-07T00:15:10.785Z,4.13
2023-02-07T00:17:38.353Z,4.97
2023-02-07T00:20:06.420Z,5.05
2023-02-07T00:22:34.180Z,3.72
2023-02-07T00:25:01.735Z,4.47
2023-02-07T00:27:29.342Z,3.45
2023-02-07T00:29:58.283Z,5.72
2023-02-07T00:32:26.010Z,4.30
2023-02-07T00:34:53.593Z,4.25
2023-02-07T00:37:21.201Z,5.07
2023-02-07T00:39:48.752Z,4.82
2023-02-07T00:42:16.311Z,5.07
2023-02-07T00:44:43.926Z,4.32
2023-02-07T00:47:12.882Z,5.07
2023-02-07T00:49:40.460Z,3.87
2023-02-07T00:52:08.024Z,5.47
2023-02-07T00:54:35.657Z,4.13
2023-02-07T00:57:03.238Z,5.93
2023-02-07T00:59:30.781Z,4.10
2023-02-07T01:01:58.367Z,6.70
2023-02-07T01:04:27.346Z,7.25
2023-02-07T01:06:54.937Z,5.45
2023-02-07T01:09:22.536Z,4.90
2023-02-07T01:11:50.318Z,5.93
2023-02-07T01:14:17.918Z,5.50
2023-02-07T01:16:45.472Z,5.55
2023-02-07T01:19:14.949Z,6.55
2023-02-07T01:21:43.895Z,6.38
2023-02-07T01:24:11.464Z,2.58
2023-02-07T01:26:39.875Z,5.80
2023-02-07T01:29:07.656Z,3.97
2023-02-07T01:31:35.346Z,5.68
2023-02-07T01:34:05.493Z,5.40
2023-02-07T01:36:33.338Z,4.70
2023-02-07T01:39:03.906Z,4.50
2023-02-07T01:41:31.531Z,6.78
2023-02-07T01:44:00.565Z,8.75
2023-02-07T01:46:28.960Z,5.07
2023-02-07T01:48:57.473Z,5.45
2023-02-07T01:51:25.678Z,3.77
2023-02-07T01:53:55.331Z,6.50
2023-02-07T01:56:31.618Z,5.70
2023-02-07T01:58:59.998Z,5.43
2023-02-07T02:01:27.624Z,5.65
2023-02-07T02:03:56.179Z,6.17
2023-02-07T02:06:25.307Z,5.15
2023-02-07T02:08:53.901Z,5.10
2023-02-07T02:11:29.956Z,6.25
2023-02-07T02:14:02.150Z,6.47
2023-02-07T02:16:31.751Z,5.30
2023-02-07T02:19:07.614Z,5.20
2023-02-07T02:21:53.063Z,4.88
2023-02-07T02:24:31.743Z,5.60
2023-02-07T02:27:04.632Z,4.95
2023-02-07T02:29:43.570Z,4.43
2023-02-07T02:32:38.224Z,5.88
2023-02-07T02:35:09.822Z,4.43
2023-02-07T02:37:43.725Z,5.07
2023-02-07T02:40:14.838Z,5.10
2023-02-07T02:42:44.863Z,7.50
2023-02-07T02:45:14.078Z,5.20
2023-02-07T02:47:43.286Z,4.47
2023-02-07T02:50:13.212Z,5.78
2023-02-07T02:52:50.652Z,4.68
2023-02-07T02:55:21.666Z,6.73
2023-02-07T02:57:54.692Z,6.68
2023-02-07T03:00:30.508Z,5.45
2023-02-07T03:03:08.891Z,5.65
2023-02-07T03:05:47.343Z,5.22
2023-02-07T03:08:21.888Z,4.53
2023-02-07T03:10:56.250Z,5.28
2023-02-07T03:13:27.874Z,5.43
2023-02-07T03:16:01.467Z,7.07
2023-02-07T03:18:30.317Z,5.63
2023-02-07T03:21:02.294Z,6.07
2023-02-07T03:23:30.462Z,3.95
2023-02-07T03:25:58.639Z,5.78
2023-02-07T03:28:27.341Z,7.88
2023-02-07T03:30:55.851Z,5.38
2023-02-07T03:33:24.323Z,6.87
2023-02-07T03:35:57.241Z,6.45
2023-02-07T03:38:26.214Z,5.50
2023-02-07T03:40:57.669Z,7.60
2023-02-07T03:43:26.298Z,5.30
2023-02-07T03:45:53.939Z,4.97
2023-02-07T03:48:21.553Z,5.10
2023-02-07T03:50:50.770Z,7.00
2023-02-07T03:53:18.358Z,5.13
2023-02-07T03:55:47.455Z,5.38
2023-02-07T03:58:15.117Z,4.77
2023-02-07T04:00:43.867Z,5.82
2023-02-07T04:03:11.505Z,6.25
2023-02-07T04:05:39.452Z,5.90
2023-02-07T04:08:07.185Z,5.78
2023-02-07T04:10:34.738Z,6.93
2023-02-07T04:13:41.624Z,5.82
2023-02-07T04:16:10.624Z,5.90
2023-02-07T04:18:38.215Z,5.90
2023-02-07T04:21:06.716Z,5.38
2023-02-07T04:23:34.723Z,5.60
2023-02-07T04:26:09.813Z,5.47
2023-02-07T04:28:37.391Z,6.38
2023-02-07T04:31:05.118Z,5.55
2023-02-07T04:33:34.234Z,5.60
2023-02-07T04:36:02.942Z,5.40
2023-02-07T04:38:30.849Z,5.95
2023-02-07T04:43:41.274Z,5.28
2023-02-07T04:46:08.888Z,6.15
2023-02-07T04:48:38.545Z,6.13
2023-02-07T04:51:06.429Z,6.22
2023-02-07T04:53:34.116Z,4.43
2023-02-07T04:56:01.717Z,5.10
2023-02-07T04:58:29.335Z,6.32
2023-02-07T05:00:57.153Z,5.67
2023-02-07T05:03:24.904Z,5.32
2023-02-07T05:05:54.641Z,5.53
2023-02-07T05:08:22.938Z,6.30
2023-02-07T05:10:53.259Z,5.45
2023-02-07T05:13:20.866Z,6.33
2023-02-07T05:15:48.434Z,4.75
2023-02-07T05:18:16.094Z,5.15
2023-02-07T05:20:43.717Z,4.82
2023-02-07T05:23:12.780Z,5.40
2023-02-07T05:25:42.081Z,5.93
2023-02-07T05:28:09.756Z,4.45
2023-02-07T05:30:37.617Z,5.47
2023-02-07T05:33:07.428Z,5.03
2023-02-07T05:35:35.771Z,5.32
2023-02-07T05:38:04.644Z,5.33
2023-02-07T05:40:33.758Z,4.07
2023-02-07T05:43:01.365Z,4.13
2023-02-07T05:45:28.967Z,5.80
2023-02-07T05:47:56.826Z,4.97
2023-02-07T05:50:24.473Z,4.97
2023-02-07T05:52:52.099Z,4.63
2023-02-07T05:55:19.891Z,4.38
2023-02-07T05:57:48.867Z,4.63
2023-02-07T06:00:17.449Z,4.65
2023-02-07T06:02:45.378Z,4.33
2023-02-07T06:05:13.740Z,4.85
2023-02-07T06:07:41.608Z,4.72
2023-02-07T06:10:09.635Z,4.32
2023-02-07T06:12:37.616Z,5.53
2023-02-07T06:15:07.032Z,5.20
2023-02-07T06:17:34.623Z,5.10
2023-02-07T06:20:02.224Z,4.88
2023-02-07T06:22:29.834Z,5.65
2023-02-07T06:24:57.445Z,4.28
2023-02-07T06:27:25.037Z,5.53
2023-02-07T06:29:52.646Z,5.10
2023-02-07T06:32:21.604Z,4.57
2023-02-07T06:34:49.186Z,4.82
2023-02-07T06:37:16.759Z,4.85
2023-02-07T06:39:44.349Z,4.07
2023-02-07T06:42:11.920Z,5.20
2023-02-07T06:44:39.494Z,3.88
2023-02-07T06:47:07.087Z,4.13
2023-02-07T06:49:36.051Z,4.75
2023-02-07T06:52:03.634Z,5.37
2023-02-07T06:54:31.205Z,5.20
2023-02-07T06:56:58.794Z,5.35
2023-02-07T06:59:26.378Z,5.32
2023-02-07T07:01:53.970Z,4.40
2023-02-07T07:04:21.587Z,4.87
2023-02-07T07:06:50.543Z,4.88
2023-02-07T07:09:18.100Z,4.43
2023-02-07T07:11:45.668Z,4.65
2023-02-07T07:14:13.428Z,4.25
2023-02-07T07:16:41.818Z,4.23
2023-02-07T07:19:09.378Z,4.63
2023-02-07T07:21:36.939Z,5.18
2023-02-07T07:24:06.282Z,3.38
2023-02-07T07:26:47.965Z,4.75
2023-02-07T07:29:16.880Z,5.37
2023-02-07T07:32:17.792Z,4.65
2023-02-07T07:34:52.717Z,4.93
2023-02-07T07:37:20.303Z,4.18
2023-02-07T07:39:49.234Z,4.78
2023-02-07T07:42:16.779Z,5.50
2023-02-07T07:44:44.350Z,5.88
2023-02-07T07:47:13.047Z,5.55
2023-02-07T07:49:40.922Z,5.38
2023-02-07T07:52:08.689Z,5.25
2023-02-07T07:54:36.275Z,4.70
2023-02-07T07:57:05.189Z,5.47
2023-02-07T07:59:32.773Z,4.93
2023-02-07T08:02:00.327Z,4.57
2023-02-07T08:04:28.021Z,5.60
2023-02-07T08:06:55.641Z,7.03
2023-02-07T08:09:23.217Z,5.38
2023-02-07T08:11:50.777Z,4.45
2023-02-07T08:14:19.702Z,5.30
2023-02-07T08:16:47.308Z,6.10
2023-02-07T08:19:14.879Z,5.50
2023-02-07T08:21:44.678Z,5.85
2023-02-07T08:24:12.408Z,5.85
2023-02-07T08:26:39.995Z,5.78
2023-02-07T08:29:07.898Z,6.30
2023-02-07T08:31:37.028Z,5.60
2023-02-07T08:34:04.689Z,6.55
2023-02-07T08:36:32.288Z,6.40
2023-02-07T08:39:00.257Z,6.30
2023-02-07T08:41:27.809Z,6.47
2023-02-07T08:43:55.408Z,6.60
2023-02-07T08:46:23.067Z,7.53
2023-02-07T08:48:52.010Z,7.00
2023-02-07T08:51:19.572Z,7.20
2023-02-07T08:53:47.158Z,6.90
2023-02-07T08:56:14.840Z,8.23
2023-02-07T08:58:42.413Z,7.72
2023-02-07T09:01:11.521Z,7.68
2023-02-07T09:03:39.352Z,7.38
2023-02-07T09:06:09.330Z,8.15
2023-02-07T09:08:36.923Z,7.50
2023-02-07T09:11:09.089Z,8.07
2023-02-07T09:13:36.862Z,7.88
2023-02-07T09:16:04.483Z,8.98
2023-02-07T09:18:32.041Z,8.15
2023-02-07T09:20:59.634Z,8.30
2023-02-07T09:23:28.582Z,8.32
2023-02-07T09:25:56.142Z,9.15
2023-02-07T09:28:23.796Z,8.82
2023-02-07T09:30:51.866Z,8.68
2023-02-07T09:33:20.119Z,8.07
2023-02-07T09:35:48.088Z,8.20
2023-02-07T09:38:16.802Z,8.38
2023-02-07T09:40:46.281Z,8.00
2023-02-07T09:43:22.519Z,8.50
2023-02-07T09:45:54.072Z,7.47
2023-02-07T09:48:23.963Z,8.52
2023-02-07T09:50:53.380Z,8.20
2023-02-07T09:53:23.782Z,7.20
2023-02-07T09:55:59.762Z,8.07
2023-02-07T09:58:33.011Z,7.50
2023-02-07T10:01:02.214Z,7.60
2023-02-07T10:03:29.904Z,7.45
2023-02-07T10:06:06.218Z,7.70
2023-02-07T10:08:54.867Z,8.00
2023-02-07T10:11:26.634Z,7.37
2023-02-07T10:14:02.910Z,7.22
2023-02-07T10:16:37.092Z,7.80
2023-02-07T10:19:09.465Z,7.43
2023-02-07T10:21:43.575Z,7.65
2023-02-07T10:24:29.019Z,7.77
2023-02-07T10:27:01.119Z,7.65
2023-02-07T10:29:35.387Z,7.70
2023-02-07T10:32:10.359Z,7.32
2023-02-07T10:34:40.350Z,8.32
2023-02-07T10:37:16.133Z,7.13
2023-02-07T10:39:45.244Z,7.53
2023-02-07T10:42:15.641Z,8.02
2023-02-07T10:44:43.350Z,8.35
2023-02-07T10:47:15.442Z,8.20
2023-02-07T10:49:44.693Z,7.87
2023-02-07T10:52:22.409Z,7.68
2023-02-07T10:54:51.276Z,7.25
2023-02-07T10:57:20.998Z,7.22
2023-02-07T10:59:50.392Z,6.97
2023-02-07T11:02:39.658Z,6.80
2023-02-07T11:05:26.858Z,6.43
2023-02-07T11:07:58.327Z,7.05
2023-02-07T11:10:27.484Z,7.22
2023-02-07T11:12:57.220Z,6.43
2023-02-07T11:15:27.265Z,6.17
2023-02-07T11:17:57.123Z,6.18
2023-02-07T11:20:27.560Z,6.90
2023-02-07T11:22:55.618Z,6.10
2023-02-07T11:25:28.774Z,6.50
2023-02-07T11:27:58.048Z,6.17
2023-02-07T11:30:28.237Z,6.70
2023-02-07T11:32:56.886Z,6.38
2023-02-07T11:35:24.455Z,6.53
2023-02-07T11:38:00.035Z,6.80
2023-02-07T11:40:29.607Z,6.80
2023-02-07T11:43:03.626Z,6.00
2023-02-07T11:45:32.456Z,5.93
2023-02-07T11:48:00.273Z,5.80
2023-02-07T11:50:30.546Z,6.00
2023-02-07T11:52:59.292Z,6.30
2023-02-07T11:55:27.679Z,6.10
2023-02-07T11:57:57.544Z,6.35
2023-02-07T12:00:27.866Z,6.35
2023-02-07T12:03:01.219Z,7.05
2023-02-07T12:05:30.474Z,6.97
2023-02-07T12:08:02.376Z,7.20
2023-02-07T12:10:32.822Z,7.97
2023-02-07T12:13:02.531Z,7.07
2023-02-07T12:15:34.040Z,7.45
2023-02-07T12:18:05.528Z,7.80
2023-02-07T12:20:34.703Z,7.43
2023-02-07T12:23:31.419Z,7.65
2023-02-07T12:25:55.353Z,7.88
2023-02-07T12:28:26.489Z,8.27
2023-02-07T12:30:58.482Z,7.33
2023-02-07T12:33:31.410Z,7.70
2023-02-07T12:36:03.939Z,8.57
2023-02-07T12:38:34.412Z,7.40
2023-02-07T12:41:07.833Z,8.10
2023-02-07T12:43:38.085Z,7.30
2023-02-07T12:46:19.301Z,7.95
2023-02-07T12:48:55.965Z,8.02
2023-02-07T12:54:43.640Z,7.05
2023-02-07T12:57:14.687Z,7.00
2023-02-07T12:59:50.574Z,7.20
2023-02-07T13:02:30.234Z,7.68
2023-02-07T13:05:14.989Z,7.53
2023-02-07T13:07:46.014Z,7.40
2023-02-07T13:10:21.571Z,7.07
2023-02-07T13:12:52.372Z,7.00
2023-02-07T13:15:22.868Z,6.90
2023-02-07T13:17:55.512Z,6.85
2023-02-07T13:20:28.723Z,7.07
2023-02-07T13:22:57.569Z,6.63
2023-02-07T13:25:27.590Z,7.82
2023-02-07T13:27:57.306Z,6.47
2023-02-07T13:30:25.452Z,6.72
2023-02-07T13:32:54.865Z,6.80
2023-02-07T13:35:24.536Z,6.17
2023-02-07T13:37:54.102Z,5.85
2023-02-07T13:40:31.423Z,6.07
2023-02-07T13:43:03.834Z,6.03
2023-02-07T13:45:37.308Z,6.30
2023-02-07T13:48:11.814Z,5.60
2023-02-07T13:50:44.993Z,5.22
2023-02-07T13:53:21.679Z,4.70
2023-02-07T13:55:49.666Z,5.07
2023-02-07T13:58:53.498Z,5.70
2023-02-07T14:01:22.755Z,5.27
2023-02-07T14:04:02.128Z,4.68
2023-02-07T14:06:32.751Z,4.63
2023-02-07T14:09:02.561Z,4.40
2023-02-07T14:11:34.601Z,4.65
2023-02-07T14:16:49.265Z,3.63
2023-02-07T14:19:38.592Z,4.43
2023-02-07T14:22:16.149Z,4.70
2023-02-07T14:24:49.442Z,4.00
2023-02-07T14:27:27.957Z,4.13
2023-02-07T14:29:56.542Z,4.72
2023-02-07T14:32:28.693Z,3.60
2023-02-07T14:35:02.550Z,3.55
2023-02-07T14:37:40.284Z,3.67
2023-02-07T14:40:09.073Z,5.00
2023-02-07T14:42:37.332Z,3.92
2023-02-07T14:45:05.660Z,3.65
2023-02-07T14:47:37.013Z,3.67
2023-02-07T14:50:07.222Z,3.72
2023-02-07T14:52:36.563Z,4.17
2023-02-07T14:55:05.976Z,4.03
2023-02-07T14:57:38.558Z,4.25
2023-02-07T15:00:16.974Z,4.15
2023-02-07T15:02:45.230Z,3.90
2023-02-07T15:05:22.805Z,3.73
2023-02-07T15:07:55.028Z,3.85
2023-02-07T15:10:23.673Z,4.07
2023-02-07T15:12:52.888Z,4.88
2023-02-07T15:15:21.671Z,3.20
2023-02-07T15:17:49.797Z,3.20
2023-02-07T15:20:18.573Z,3.70
2023-02-07T15:22:49.903Z,4.28
2023-02-07T15:25:17.660Z,3.47
2023-02-07T15:27:58.899Z,3.63
2023-02-07T15:30:26.653Z,3.60
2023-02-07T15:32:54.238Z,4.05
2023-02-07T15:35:22.982Z,3.60
2023-02-07T15:37:51.984Z,3.38
2023-02-07T15:40:20.215Z,3.40
2023-02-07T15:42:51.125Z,3.70
2023-02-07T15:45:24.650Z,3.67
2023-02-07T15:47:57.337Z,3.40
2023-02-07T15:50:25.649Z,3.67
2023-02-07T15:52:55.615Z,3.53
2023-02-07T15:55:25.325Z,3.70
2023-02-07T15:57:53.553Z,3.33
2023-02-07T16:00:23.461Z,3.70
2023-02-07T16:02:56.232Z,3.75
2023-02-07T16:05:24.988Z,4.18
2023-02-07T16:07:54.113Z,3.53
2023-02-07T16:10:33.065Z,4.05
2023-02-07T16:13:01.616Z,3.85
2023-02-07T16:15:30.226Z,3.88
2023-02-07T16:17:57.767Z,3.03
2023-02-07T16:20:26.157Z,3.40
2023-02-07T16:22:56.682Z,3.90
2023-02-07T16:25:27.415Z,3.60
2023-02-07T16:27:55.402Z,4.53
2023-02-07T16:30:24.918Z,4.03
2023-02-07T16:32:52.516Z,3.93
2023-02-07T16:35:21.348Z,4.10
2023-02-07T16:37:49.005Z,4.15
2023-02-07T16:40:18.698Z,4.20
2023-02-07T16:42:46.278Z,4.40
2023-02-07T16:45:20.556Z,5.53
2023-02-07T16:47:48.338Z,4.15
2023-02-07T16:50:16.885Z,4.13
2023-02-07T16:52:44.442Z,4.18
2023-02-07T16:55:12.131Z,4.57
2023-02-07T16:57:41.916Z,4.73
2023-02-07T17:00:10.365Z,4.85
2023-02-07T17:02:38.061Z,4.78
2023-02-07T17:05:05.778Z,4.82
2023-02-07T17:07:33.350Z,4.57
2023-02-07T17:10:00.868Z,4.90
2023-02-07T17:12:28.446Z,4.90
2023-02-07T17:14:57.358Z,4.60
2023-02-07T17:17:25.964Z,4.78
2023-02-07T17:19:53.517Z,4.45
2023-02-07T17:22:21.169Z,4.90
2023-02-07T17:24:48.938Z,4.63
2023-02-07T17:27:16.493Z,4.93
2023-02-07T17:29:44.922Z,4.88
2023-02-07T17:32:13.918Z,5.28
2023-02-07T17:34:41.457Z,4.43
2023-02-07T17:37:11.019Z,4.90
2023-02-07T17:39:38.602Z,5.43
2023-02-07T17:42:06.241Z,5.50
2023-02-07T17:44:35.391Z,4.63
2023-02-07T17:47:02.987Z,4.23
2023-02-07T17:49:31.949Z,4.30
2023-02-07T17:51:59.514Z,5.18
2023-02-07T17:54:27.074Z,4.82
2023-02-07T17:56:55.741Z,4.93
2023-02-07T17:59:24.786Z,5.27
2023-02-07T18:01:52.832Z,5.15
2023-02-07T18:04:20.395Z,4.45
2023-02-07T18:06:49.391Z,5.15
2023-02-07T18:09:19.120Z,6.53
2023-02-07T18:11:46.712Z,5.70
2023-02-07T18:14:14.300Z,5.03
2023-02-07T18:16:41.968Z,4.68
2023-02-07T18:19:10.144Z,4.82
2023-02-07T18:21:37.855Z,5.43
2023-02-07T18:24:07.059Z,5.27
2023-02-07T18:26:34.637Z,5.45
2023-02-07T18:29:02.184Z,4.85
2023-02-07T18:31:30.110Z,4.47
2023-02-07T18:33:57.760Z,5.10
2023-02-07T18:36:26.787Z,4.90
2023-02-07T18:38:54.404Z,4.78
2023-02-07T18:41:26.399Z,4.82
2023-02-07T18:43:53.973Z,4.60
2023-02-07T18:46:22.466Z,4.53
2023-02-07T18:48:54.560Z,4.97
2023-02-07T18:51:22.219Z,5.53
2023-02-07T18:53:50.399Z,5.88
2023-02-07T18:56:19.736Z,7.22
2023-02-07T18:58:49.149Z,6.75
2023-02-07T19:01:19.150Z,5.87
2023-02-07T19:03:47.296Z,6.35
2023-02-07T19:06:15.390Z,5.63
2023-02-07T19:08:42.988Z,5.68
2023-02-07T19:11:10.584Z,5.97
2023-02-07T19:13:38.206Z,4.53
2023-02-07T19:16:08.365Z,5.88
2023-02-07T19:18:35.983Z,6.20
2023-02-07T19:21:04.225Z,5.88
2023-02-07T19:23:31.831Z,6.65
2023-02-07T19:25:59.424Z,6.73
2023-02-07T19:28:26.999Z,6.65
2023-02-07T19:30:54.650Z,6.20
2023-02-07T19:33:23.984Z,6.13
2023-02-07T19:35:51.731Z,6.38
2023-02-07T19:38:19.315Z,5.43
2023-02-07T19:40:46.975Z,6.18
2023-02-07T19:43:14.528Z,6.30
2023-02-07T19:45:42.088Z,6.60
2023-02-07T19:48:09.621Z,6.35
2023-02-07T19:50:38.790Z,6.40
2023-02-07T19:53:06.593Z,6.22
2023-02-07T19:55:34.161Z,6.47
2023-02-07T19:58:01.705Z,6.80
2023-02-07T20:00:30.520Z,6.53
2023-02-07T20:02:58.797Z,6.17
2023-02-07T20:05:26.434Z,6.45
2023-02-07T20:07:56.554Z,7.00
2023-02-07T20:10:24.177Z,7.05
2023-02-07T20:12:51.780Z,6.40
2023-02-07T20:15:19.432Z,6.70
2023-02-07T20:17:46.991Z,6.20
2023-02-07T20:20:15.127Z,6.78
2023-02-07T20:22:42.679Z,7.18
2023-02-07T20:25:11.628Z,6.80
2023-02-07T20:27:39.197Z,6.90
2023-02-07T20:30:07.141Z,7.35
2023-02-07T20:32:34.716Z,6.80
2023-02-07T20:35:02.295Z,6.90
2023-02-07T20:37:29.887Z,6.30
2023-02-07T20:39:57.490Z,5.47
2023-02-07T20:42:26.433Z,6.18
2023-02-07T20:44:53.996Z,7.35
2023-02-07T20:47:21.587Z,6.55
2023-02-07T20:49:49.172Z,5.82
2023-02-07T20:52:16.788Z,6.10
2023-02-07T20:54:44.545Z,5.00
2023-02-07T20:57:12.088Z,5.65
2023-02-07T20:59:41.036Z,5.95
2023-02-07T21:02:08.745Z,6.07
2023-02-07T21:04:37.433Z,6.30
2023-02-07T21:07:05.719Z,4.35
2023-02-07T21:09:33.385Z,6.25
2023-02-07T21:12:01.355Z,5.97
2023-02-07T21:14:30.517Z,5.32
2023-02-07T21:17:01.329Z,5.63
2023-02-07T21:19:29.333Z,7.72
2023-02-07T21:21:56.934Z,7.65
2023-02-07T21:24:24.515Z,6.93
2023-02-07T21:26:53.510Z,5.78
2023-02-07T21:29:21.638Z,6.40
2023-02-07T21:31:49.736Z,6.05
2023-02-07T21:34:21.180Z,6.55
2023-02-07T21:36:49.487Z,5.88
2023-02-07T21:39:17.546Z,6.22
2023-02-07T21:41:46.055Z,6.43
2023-02-07T21:44:14.334Z,6.15
2023-02-07T21:46:42.591Z,5.97
2023-02-07T21:49:14.213Z,7.00
2023-02-07T21:51:43.877Z,5.55
2023-02-07T21:54:11.554Z,6.03
2023-02-07T21:56:40.812Z,8.15
2023-02-07T21:59:09.201Z,5.88
2023-02-07T22:01:37.564Z,6.55
2023-02-07T22:04:05.782Z,7.13
2023-02-07T22:06:33.665Z,6.70
2023-02-07T22:09:04.783Z,8.68
2023-02-07T22:11:33.604Z,7.82
2023-02-07T22:14:01.825Z,6.97
2023-02-07T22:16:30.172Z,5.68
2023-02-07T22:18:58.329Z,7.03
2023-02-07T22:21:26.945Z,6.18
2023-02-07T22:23:55.242Z,7.03
2023-02-07T22:26:24.556Z,5.90
2023-02-07T22:28:52.375Z,5.90
2023-02-07T22:31:21.257Z,5.93
2023-02-07T22:33:49.448Z,6.85
2023-02-07T22:36:19.088Z,5.65
2023-02-07T22:38:46.991Z,4.90
2023-02-07T22:41:14.669Z,6.22
2023-02-07T22:43:43.658Z,7.10
2023-02-07T22:46:13.151Z,6.43
2023-02-07T22:48:40.815Z,5.90
2023-02-07T22:51:11.919Z,5.45
2023-02-07T22:53:39.462Z,5.78
2023-02-07T22:56:07.248Z,6.80
2023-02-07T22:58:34.889Z,6.80
2023-02-07T23:01:03.984Z,6.93
2023-02-07T23:03:31.791Z,7.68
2023-02-07T23:05:59.434Z,5.22
2023-02-07T23:08:26.992Z,6.23
2023-02-07T23:10:54.566Z,6.35
2023-02-07T23:13:22.396Z,6.97
2023-02-07T23:15:50.159Z,7.15
2023-02-07T23:18:19.157Z,6.38
2023-02-07T23:20:46.901Z,7.20
2023-02-07T23:23:14.500Z,5.57
2023-02-07T23:25:42.954Z,6.80
2023-02-07T23:28:10.667Z,4.47
2023-02-07T23:30:38.376Z,4.90
2023-02-07T23:33:06.255Z,6.27
2023-02-07T23:35:35.528Z,5.43
2023-02-07T23:38:03.149Z,5.03
2023-02-07T23:40:30.773Z,6.30
2023-02-07T23:42:58.360Z,4.88
2023-02-07T23:45:26.061Z,4.97
2023-02-07T23:47:53.810Z,6.20
2023-02-07T23:50:22.474Z,7.75
2023-02-07T23:52:51.497Z,6.18
2023-02-07T23:55:19.169Z,5.38
2023-02-07T23:57:46.759Z,6.10
